createdAt,value
2022-11-14T00:00:44.747Z,85.13
2022-11-14T00:03:30.312Z,77.68
2022-11-14T00:06:15.681Z,74.82
2022-11-14T00:09:00.853Z,76.85
2022-11-14T00:11:46.198Z,73.97
2022-11-14T00:14:31.463Z,74.10
2022-11-14T00:17:16.869Z,70.25
2022-11-14T00:20:02.552Z,68.55
2022-11-14T00:22:47.649Z,67.97
2022-11-14T00:25:33.073Z,76.60
2022-11-14T00:28:18.302Z,68.43
2022-11-14T00:31:03.496Z,72.82
2022-11-14T00:33:49.218Z,70.80
2022-11-14T00:36:35.000Z,72.18
2022-11-14T00:39:20.114Z,65.93
2022-11-14T00:42:05.386Z,67.47
2022-11-14T00:44:51.098Z,69.95
2022-11-14T00:47:36.987Z,72.10
2022-11-14T00:50:22.472Z,63.05
2022-11-14T00:53:07.793Z,73.03
2022-11-14T00:55:53.090Z,75.57
2022-11-14T00:58:38.293Z,73.15
2022-11-14T01:01:23.791Z,76.05
2022-11-14T01:04:09.077Z,71.95
2022-11-14T01:06:54.490Z,70.22
2022-11-14T01:09:39.488Z,63.30
2022-11-14T01:12:24.991Z,69.20
2022-11-14T01:15:10.463Z,71.88
2022-11-14T01:17:55.669Z,67.10
2022-11-14T01:20:42.551Z,74.28
2022-11-14T01:23:27.749Z,66.47
2022-11-14T01:26:14.463Z,73.85
2022-11-14T01:28:59.498Z,75.18
2022-11-14T01:31:44.862Z,74.88
2022-11-14T01:34:30.087Z,76.50
2022-11-14T01:37:15.349Z,77.78
2022-11-14T01:40:00.610Z,79.63
2022-11-14T01:43:16.655Z,72.97
2022-11-14T01:46:25.786Z,69.07
2022-11-14T01:49:13.892Z,65.75
2022-11-14T01:52:04.538Z,70.05
2022-11-14T01:54:58.310Z,67.43
2022-11-14T01:57:47.184Z,69.97
2022-11-14T02:00:32.973Z,67.15
2022-11-14T02:03:19.160Z,64.55
2022-11-14T02:06:06.389Z,65.55
2022-11-14T02:08:52.252Z,68.85
2022-11-14T02:11:41.923Z,65.38
2022-11-14T02:14:28.100Z,72.47
2022-11-14T02:17:29.037Z,69.97
2022-11-14T02:20:21.245Z,71.72
2022-11-14T02:23:06.466Z,70.70
2022-11-14T02:25:52.162Z,71.68
2022-11-14T02:28:37.726Z,71.63
2022-11-14T02:31:22.993Z,71.43
2022-11-14T02:34:08.028Z,73.63
2022-11-14T02:36:54.207Z,77.43
2022-11-14T02:39:39.917Z,68.70
2022-11-14T02:42:25.134Z,64.70
2022-11-14T02:45:12.038Z,69.85
2022-11-14T02:47:57.321Z,70.28
2022-11-14T02:50:42.789Z,66.38
2022-11-14T02:53:27.993Z,68.45
2022-11-14T02:56:13.195Z,66.72
2022-11-14T02:58:58.800Z,64.72
2022-11-14T03:01:44.338Z,64.90
2022-11-14T03:04:29.711Z,66.85
2022-11-14T03:07:15.216Z,66.18
2022-11-14T03:10:00.265Z,65.38
2022-11-14T03:12:45.742Z,74.45
2022-11-14T03:15:30.810Z,68.90
2022-11-14T03:18:16.143Z,73.10
2022-11-14T03:21:07.498Z,73.18
2022-11-14T03:23:53.136Z,70.95
2022-11-14T03:26:38.623Z,68.07
2022-11-14T03:29:23.889Z,66.03
2022-11-14T03:32:09.058Z,62.63
2022-11-14T03:34:54.291Z,74.20
2022-11-14T03:37:39.751Z,76.88
2022-11-14T03:40:24.982Z,81.95
2022-11-14T03:43:10.224Z,78.80
2022-11-14T03:45:58.482Z,72.05
2022-11-14T03:48:43.857Z,72.93
2022-11-14T03:51:29.311Z,75.40
2022-11-14T03:54:14.857Z,74.38
2022-11-14T03:56:59.978Z,74.18
2022-11-14T03:59:45.401Z,74.60
2022-11-14T04:02:30.550Z,64.32
2022-11-14T04:05:16.307Z,65.65
2022-11-14T04:08:04.141Z,66.20
2022-11-14T04:10:50.018Z,71.47
2022-11-14T04:13:35.213Z,69.20
2022-11-14T04:16:20.733Z,68.68
2022-11-14T04:19:05.852Z,71.70
2022-11-14T04:21:51.113Z,67.90
2022-11-14T04:24:36.345Z,70.53
2022-11-14T04:27:21.874Z,66.68
2022-11-14T04:30:07.873Z,62.35
2022-11-14T04:32:53.054Z,68.70
2022-11-14T04:35:38.390Z,68.50
2022-11-14T04:38:24.018Z,70.18
2022-11-14T04:41:09.137Z,66.78
2022-11-14T04:43:54.341Z,65.40
2022-11-14T04:46:39.658Z,69.30
2022-11-14T04:49:25.308Z,69.47
2022-11-14T04:52:10.937Z,69.25
2022-11-14T04:54:56.355Z,73.90
2022-11-14T04:57:41.518Z,67.95
2022-11-14T05:00:27.205Z,70.05
2022-11-14T05:03:12.440Z,76.18
2022-11-14T05:06:01.190Z,75.07
2022-11-14T05:08:46.621Z,74.05
2022-11-14T05:11:32.010Z,70.60
2022-11-14T05:14:17.606Z,77.00
2022-11-14T05:17:02.778Z,71.50
2022-11-14T05:19:48.419Z,75.60
2022-11-14T05:22:33.536Z,77.57
2022-11-14T05:25:19.024Z,70.07
2022-11-14T05:28:04.357Z,75.25
2022-11-14T05:30:49.684Z,68.53
2022-11-14T05:33:35.610Z,71.90
2022-11-14T05:36:20.748Z,66.03
2022-11-14T05:39:05.975Z,70.43
2022-11-14T05:41:51.432Z,67.63
2022-11-14T05:44:37.341Z,70.88
2022-11-14T05:47:23.150Z,64.82
2022-11-14T05:50:08.923Z,69.80
2022-11-14T05:52:54.298Z,66.57
2022-11-14T05:55:39.411Z,70.50
2022-11-14T05:58:24.865Z,67.20
2022-11-14T06:01:16.364Z,68.78
2022-11-14T06:04:01.667Z,64.55
2022-11-14T06:06:47.022Z,59.40
2022-11-14T06:09:32.274Z,57.08
2022-11-14T06:12:17.687Z,58.20
2022-11-14T06:15:03.406Z,58.88
2022-11-14T06:17:49.012Z,56.10
2022-11-14T06:20:34.373Z,55.28
2022-11-14T06:23:24.637Z,54.28
2022-11-14T06:26:30.310Z,50.45
2022-11-14T06:29:15.321Z,55.05
2022-11-14T06:32:00.685Z,54.40
2022-11-14T06:34:46.201Z,51.72
2022-11-14T06:37:33.695Z,55.90
2022-11-14T06:40:19.530Z,55.95
2022-11-14T06:43:04.814Z,52.22
2022-11-14T06:45:53.221Z,52.45
2022-11-14T06:48:39.338Z,53.65
2022-11-14T06:51:24.579Z,59.40
2022-11-14T06:54:13.655Z,56.10
2022-11-14T06:56:59.123Z,48.67
2022-11-14T06:59:45.134Z,53.55
2022-11-14T07:02:30.231Z,45.40
2022-11-14T07:05:15.715Z,56.22
2022-11-14T07:08:00.754Z,53.78
2022-11-14T07:10:46.161Z,55.05
2022-11-14T07:13:33.144Z,57.60
2022-11-14T07:16:19.417Z,55.53
2022-11-14T07:19:06.704Z,58.67
2022-11-14T07:21:52.208Z,57.83
2022-11-14T07:24:37.315Z,53.92
2022-11-14T07:27:22.781Z,57.75
2022-11-14T07:30:08.286Z,56.67
2022-11-14T07:33:00.196Z,56.45
2022-11-14T07:35:45.690Z,57.88
2022-11-14T07:38:32.634Z,57.65
2022-11-14T07:41:18.633Z,50.72
2022-11-14T07:44:03.966Z,53.05
2022-11-14T07:46:50.103Z,58.28
2022-11-14T07:49:35.514Z,55.35
2022-11-14T07:52:21.041Z,52.50
2022-11-14T07:55:06.586Z,54.22
2022-11-14T07:57:55.208Z,55.15
2022-11-14T08:00:40.561Z,54.22
2022-11-14T08:03:25.843Z,51.13
2022-11-14T08:06:13.876Z,55.95
2022-11-14T08:08:59.058Z,59.33
2022-11-14T08:11:50.134Z,54.55
2022-11-14T08:14:35.568Z,52.65
2022-11-14T08:17:22.308Z,54.10
2022-11-14T08:20:09.221Z,51.13
2022-11-14T08:23:01.305Z,56.72
2022-11-14T08:25:46.633Z,53.22
2022-11-14T08:28:32.544Z,58.00
2022-11-14T08:31:17.897Z,58.38
2022-11-14T08:34:03.155Z,59.17
2022-11-14T08:36:48.455Z,59.45
2022-11-14T08:39:33.787Z,58.83
2022-11-14T08:42:19.124Z,59.78
2022-11-14T08:45:04.986Z,50.53
2022-11-14T08:47:52.350Z,62.78
2022-11-14T08:50:37.687Z,59.22
2022-11-14T08:53:23.654Z,63.50
2022-11-14T08:56:10.666Z,58.25
2022-11-14T08:58:56.072Z,58.28
2022-11-14T09:01:41.338Z,60.47
2022-11-14T09:04:26.756Z,56.42
2022-11-14T09:07:11.959Z,62.35
2022-11-14T09:09:57.425Z,54.92
2022-11-14T09:12:42.527Z,60.85
2022-11-14T09:15:29.127Z,60.92
2022-11-14T09:18:15.155Z,65.70
2022-11-14T09:21:02.445Z,58.22
2022-11-14T09:23:48.141Z,56.28
2022-11-14T09:26:33.640Z,56.83
2022-11-14T09:29:19.032Z,59.97
2022-11-14T09:32:04.390Z,56.42
2022-11-14T09:34:49.737Z,56.00
2022-11-14T09:37:34.984Z,52.33
2022-11-14T09:40:20.484Z,60.40
2022-11-14T09:43:27.147Z,49.22
2022-11-14T09:46:23.561Z,52.40
2022-11-14T09:49:25.461Z,55.13
2022-11-14T09:52:25.454Z,48.47
2022-11-14T09:55:22.481Z,45.58
2022-11-14T09:58:15.848Z,48.38
2022-11-14T10:01:11.492Z,45.08
2022-11-14T10:04:14.950Z,46.10
2022-11-14T10:07:34.250Z,43.45
2022-11-14T10:10:35.799Z,37.92
2022-11-14T10:13:51.908Z,44.70
2022-11-14T10:16:46.568Z,39.13
2022-11-14T10:19:42.951Z,36.13
2022-11-14T10:23:01.004Z,41.47
2022-11-14T10:26:07.782Z,35.15
2022-11-14T10:29:17.226Z,38.53
2022-11-14T10:32:20.320Z,36.97
2022-11-14T10:35:08.512Z,31.40
2022-11-14T10:38:24.579Z,36.72
2022-11-14T10:41:19.334Z,38.30
2022-11-14T10:44:20.893Z,36.00
2022-11-14T10:47:13.238Z,35.50
2022-11-14T10:50:11.831Z,34.33
2022-11-14T10:53:02.666Z,31.98
2022-11-14T10:56:03.553Z,30.52
2022-11-14T10:58:50.450Z,31.52
2022-11-14T11:01:37.894Z,30.08
2022-11-14T11:04:34.642Z,34.35
2022-11-14T11:07:43.500Z,30.90
2022-11-14T11:10:48.195Z,30.38
2022-11-14T11:13:36.450Z,26.05
2022-11-14T11:16:24.021Z,31.27
2022-11-14T11:19:27.914Z,31.33
2022-11-14T11:22:36.106Z,30.13
2022-11-14T11:25:28.162Z,31.00
2022-11-14T11:28:17.592Z,29.65
2022-11-14T11:31:11.187Z,30.73
2022-11-14T11:34:03.261Z,29.42
2022-11-14T11:36:53.814Z,28.10
2022-11-14T11:39:50.907Z,29.92
2022-11-14T11:43:31.600Z,25.92
2022-11-14T11:45:50.837Z,27.38
2022-11-14T11:48:40.204Z,27.30
2022-11-14T11:51:26.855Z,26.65
2022-11-14T11:54:19.709Z,23.77
2022-11-14T11:57:18.525Z,27.75
2022-11-14T12:00:17.654Z,30.05
2022-11-14T12:03:03.063Z,25.98
2022-11-14T12:06:25.118Z,28.63
2022-11-14T12:09:15.133Z,29.55
2022-11-14T12:12:18.887Z,24.23
2022-11-14T12:15:40.511Z,27.52
2022-11-14T12:18:31.931Z,24.13
2022-11-14T12:21:34.221Z,27.08
2022-11-14T12:24:37.268Z,23.73
2022-11-14T12:27:49.703Z,26.30
2022-11-14T12:30:36.529Z,24.60
2022-11-14T12:33:30.040Z,25.83
2022-11-14T12:36:16.068Z,23.05
2022-11-14T12:39:02.684Z,23.52
2022-11-14T12:41:48.453Z,25.33
2022-11-14T12:44:39.129Z,22.42
2022-11-14T12:47:27.029Z,22.95
2022-11-14T12:50:42.360Z,22.35
2022-11-14T12:53:36.566Z,23.77
2022-11-14T12:56:48.708Z,24.15
2022-11-14T13:00:02.371Z,22.08
2022-11-14T13:03:31.822Z,23.85
2022-11-14T13:06:29.143Z,20.92
2022-11-14T13:09:49.599Z,18.48
2022-11-14T13:12:54.620Z,20.05
2022-11-14T13:16:13.362Z,23.00
2022-11-14T13:19:29.394Z,22.08
2022-11-14T13:22:14.819Z,19.92
2022-11-14T13:25:00.990Z,22.95
2022-11-14T13:31:24.159Z,24.48
2022-11-14T13:34:37.450Z,22.38
2022-11-14T13:37:59.726Z,21.88
2022-11-14T13:40:49.999Z,20.15
2022-11-14T13:44:03.233Z,21.77
2022-11-14T13:47:20.655Z,19.45
2022-11-14T13:50:09.089Z,18.63
2022-11-14T13:52:54.872Z,21.55
2022-11-14T13:56:04.988Z,22.25
2022-11-14T13:59:21.822Z,18.13
2022-11-14T14:02:15.901Z,21.85
2022-11-14T14:05:10.819Z,18.13
2022-11-14T14:08:26.739Z,18.02
2022-11-14T14:11:23.884Z,18.90
2022-11-14T14:14:21.153Z,17.27
2022-11-14T14:17:18.642Z,16.40
2022-11-14T14:20:25.839Z,19.63
2022-11-14T14:23:43.831Z,16.92
2022-11-14T14:26:40.944Z,18.60
2022-11-14T14:29:44.629Z,16.60
2022-11-14T14:32:33.270Z,17.27
2022-11-14T14:35:27.894Z,16.55
2022-11-14T14:38:22.000Z,17.08
2022-11-14T14:41:07.598Z,18.52
2022-11-14T14:43:55.410Z,16.80
2022-11-14T14:46:40.685Z,18.55
2022-11-14T14:49:30.272Z,15.18
2022-11-14T14:52:32.547Z,14.32
2022-11-14T14:55:24.164Z,14.00
2022-11-14T14:58:22.013Z,14.57
2022-11-14T15:01:19.848Z,16.52
2022-11-14T15:04:13.614Z,16.05
2022-11-14T15:06:59.134Z,15.27
2022-11-14T15:09:53.500Z,14.98
2022-11-14T15:12:40.924Z,15.15
2022-11-14T15:15:27.695Z,16.30
2022-11-14T15:18:30.708Z,16.40
2022-11-14T15:21:27.181Z,14.88
2022-11-14T15:24:15.143Z,14.60
2022-11-14T15:27:13.291Z,15.02
2022-11-14T15:30:05.606Z,12.95
2022-11-14T15:32:53.590Z,14.38
2022-11-14T15:35:40.126Z,15.77
2022-11-14T15:41:32.443Z,13.93
2022-11-14T15:44:34.442Z,16.15
2022-11-14T15:47:27.002Z,14.90
2022-11-14T15:50:12.546Z,17.38
2022-11-14T15:53:02.549Z,15.57
2022-11-14T15:55:47.642Z,14.85
2022-11-14T15:58:33.553Z,15.70
2022-11-14T16:01:23.974Z,15.10
2022-11-14T16:04:18.769Z,15.38
2022-11-14T16:07:04.801Z,17.77
2022-11-14T16:09:50.788Z,16.27
2022-11-14T16:12:35.989Z,14.85
2022-11-14T16:15:22.333Z,17.25
2022-11-14T16:18:07.670Z,15.93
2022-11-14T16:20:58.554Z,13.95
2022-11-14T16:23:43.832Z,15.57
2022-11-14T16:26:31.209Z,14.52
2022-11-14T16:29:18.511Z,14.95
2022-11-14T16:32:04.325Z,16.05
2022-11-14T16:34:50.265Z,15.57
2022-11-14T16:37:35.577Z,13.35
2022-11-14T16:40:28.615Z,15.32
2022-11-14T16:43:14.549Z,13.10
2022-11-14T16:46:04.577Z,18.05
2022-11-14T16:48:50.142Z,14.68
2022-11-14T16:51:51.096Z,14.68
2022-11-14T16:54:36.801Z,18.45
2022-11-14T16:57:22.755Z,15.32
2022-11-14T17:00:11.027Z,15.43
2022-11-14T17:02:56.868Z,16.83
2022-11-14T17:05:46.688Z,17.02
2022-11-14T17:08:32.084Z,20.00
2022-11-14T17:11:17.514Z,15.98
2022-11-14T17:14:02.731Z,20.00
2022-11-14T17:16:48.091Z,20.02
2022-11-14T17:19:33.500Z,21.55
2022-11-14T17:22:19.938Z,19.42
2022-11-14T17:25:05.582Z,18.15
2022-11-14T17:27:51.284Z,21.30
2022-11-14T17:30:43.716Z,20.15
2022-11-14T17:33:29.268Z,20.83
2022-11-14T17:36:15.072Z,22.25
2022-11-14T17:39:00.522Z,19.05
2022-11-14T17:41:46.275Z,21.75
2022-11-14T17:44:31.784Z,18.23
2022-11-14T17:47:17.354Z,22.42
2022-11-14T17:50:02.892Z,20.17
2022-11-14T17:52:48.313Z,19.00
2022-11-14T17:55:33.677Z,27.63
2022-11-14T17:58:19.298Z,21.55
2022-11-14T18:01:10.392Z,22.73
2022-11-14T18:03:58.417Z,21.77
2022-11-14T18:06:47.287Z,20.95
2022-11-14T18:09:32.673Z,25.65
2022-11-14T18:12:18.042Z,23.63
2022-11-14T18:15:03.300Z,21.65
2022-11-14T18:17:48.862Z,23.33
2022-11-14T18:20:37.373Z,20.33
2022-11-14T18:23:22.653Z,23.45
2022-11-14T18:26:16.109Z,24.15
2022-11-14T18:29:02.249Z,20.77
2022-11-14T18:31:48.177Z,23.25
2022-11-14T18:34:36.736Z,18.77
2022-11-14T18:37:22.975Z,21.75
2022-11-14T18:40:14.772Z,25.10
2022-11-14T18:43:01.279Z,21.55
2022-11-14T18:45:46.707Z,20.08
2022-11-14T18:48:31.910Z,23.17
2022-11-14T18:51:23.955Z,23.25
2022-11-14T18:54:16.216Z,21.50
2022-11-14T18:57:01.717Z,21.20
2022-11-14T18:59:47.209Z,21.45
2022-11-14T19:02:32.364Z,21.52
2022-11-14T19:05:17.790Z,20.75
2022-11-14T19:08:03.205Z,22.65
2022-11-14T19:10:49.037Z,21.30
2022-11-14T19:13:34.774Z,23.17
2022-11-14T19:16:20.070Z,19.55
2022-11-14T19:19:06.404Z,21.13
2022-11-14T19:21:52.289Z,23.20
2022-11-14T19:24:40.231Z,20.23
2022-11-14T19:27:26.130Z,20.42
2022-11-14T19:30:11.731Z,19.77
2022-11-14T19:32:57.193Z,19.83
2022-11-14T19:35:42.557Z,22.42
2022-11-14T19:38:27.985Z,21.50
2022-11-14T19:41:21.385Z,20.77
2022-11-14T19:44:07.004Z,22.25
2022-11-14T19:46:54.447Z,22.77
2022-11-14T19:49:39.824Z,21.92
2022-11-14T19:52:25.117Z,22.65
2022-11-14T19:55:10.632Z,27.05
2022-11-14T19:57:55.826Z,20.17
2022-11-14T20:00:41.078Z,23.50
2022-11-14T20:03:26.766Z,18.50
2022-11-14T20:06:16.604Z,19.10
2022-11-14T20:09:07.190Z,21.77
2022-11-14T20:11:52.646Z,19.73
2022-11-14T20:14:37.887Z,18.85
2022-11-14T20:17:23.333Z,22.40
2022-11-14T20:20:08.912Z,20.88
2022-11-14T20:22:54.396Z,23.30
2022-11-14T20:25:40.744Z,21.05
2022-11-14T20:28:25.862Z,21.98
2022-11-14T20:31:16.377Z,18.90
2022-11-14T20:34:01.526Z,19.88
2022-11-14T20:37:09.780Z,20.98
2022-11-14T20:39:52.418Z,23.77
2022-11-14T20:42:38.051Z,21.17
2022-11-14T20:45:24.150Z,17.90
2022-11-14T20:48:09.539Z,18.90
2022-11-14T20:51:06.004Z,20.05
2022-11-14T20:53:53.693Z,20.27
2022-11-14T20:56:39.253Z,20.42
2022-11-14T20:59:24.777Z,18.75
2022-11-14T21:02:12.718Z,21.25
2022-11-14T21:04:58.520Z,19.17
2022-11-14T21:07:43.660Z,19.67
2022-11-14T21:10:47.707Z,18.52
2022-11-14T21:13:55.831Z,21.70
2022-11-14T21:16:41.489Z,19.95
2022-11-14T21:19:28.962Z,20.85
2022-11-14T21:22:14.378Z,18.33
2022-11-14T21:25:00.484Z,20.55
2022-11-14T21:27:45.922Z,19.15
2022-11-14T21:30:32.186Z,20.23
2022-11-14T21:33:17.382Z,19.40
2022-11-14T21:36:23.020Z,19.08
2022-11-14T21:39:15.829Z,18.35
2022-11-14T21:42:01.844Z,20.08
2022-11-14T21:44:47.074Z,22.15
2022-11-14T21:47:34.053Z,18.88
2022-11-14T21:50:19.164Z,18.58
2022-11-14T21:53:15.544Z,18.70
2022-11-14T21:56:14.151Z,18.30
2022-11-14T21:59:13.361Z,19.75
2022-11-14T22:02:17.577Z,21.75
2022-11-14T22:05:03.059Z,17.98
2022-11-14T22:07:48.226Z,17.02
2022-11-14T22:10:33.402Z,21.27
2022-11-14T22:13:18.896Z,20.42
2022-11-14T22:16:05.704Z,17.45
2022-11-14T22:18:56.303Z,18.50
2022-11-14T22:21:43.382Z,20.25
2022-11-14T22:24:29.000Z,19.27
2022-11-14T22:27:14.101Z,20.67
2022-11-14T22:29:59.588Z,18.42
2022-11-14T22:32:44.758Z,22.23
2022-11-14T22:35:34.210Z,15.93
2022-11-14T22:38:19.563Z,20.13
2022-11-14T22:41:14.133Z,19.60
2022-11-14T22:44:00.864Z,20.63
2022-11-14T22:46:46.533Z,19.23
2022-11-14T22:49:31.680Z,24.02
2022-11-14T22:52:16.877Z,18.85
2022-11-14T22:55:01.945Z,21.48
2022-11-14T22:57:47.493Z,21.55
2022-11-14T23:00:32.658Z,19.38
2022-11-14T23:03:20.665Z,18.25
2022-11-14T23:06:17.807Z,22.35
2022-11-14T23:09:04.269Z,17.55
2022-11-14T23:11:49.753Z,17.52
2022-11-14T23:14:34.880Z,19.52
2022-11-14T23:17:20.281Z,18.00
2022-11-14T23:20:05.999Z,23.85
2022-11-14T23:22:51.497Z,15.30
2022-11-14T23:25:37.681Z,18.17
2022-11-14T23:28:23.137Z,21.95
2022-11-14T23:31:09.749Z,21.98
2022-11-14T23:33:56.098Z,15.77
2022-11-14T23:36:41.208Z,19.40
2022-11-14T23:39:26.787Z,16.80
2022-11-14T23:42:11.860Z,20.45
2022-11-14T23:44:57.305Z,16.13
2022-11-14T23:47:42.450Z,19.77
2022-11-14T23:50:28.281Z,21.17
2022-11-14T23:53:13.655Z,17.92
2022-11-14T23:56:01.221Z,20.52
2022-11-14T23:58:46.481Z,20.77
